createdAt,value
2023-05-02T00:01:29.111Z,8.68
2023-05-02T00:04:12.403Z,8.68
2023-05-02T00:06:54.470Z,8.66
2023-05-02T00:09:29.118Z,8.77
2023-05-02T00:12:07.266Z,8.83
2023-05-02T00:14:43.863Z,8.93
2023-05-02T00:17:24.926Z,8.93
2023-05-02T00:19:59.879Z,8.83
2023-05-02T00:22:41.556Z,8.85
2023-05-02T00:25:17.265Z,8.84
2023-05-02T00:27:58.063Z,8.90
2023-05-02T00:30:27.970Z,8.83
2023-05-02T00:33:00.605Z,8.76
2023-05-02T00:35:41.628Z,8.77
2023-05-02T00:38:17.041Z,8.78
2023-05-02T00:40:55.365Z,8.80
2023-05-02T00:43:33.329Z,8.77
2023-05-02T00:46:13.608Z,8.76
2023-05-02T00:48:49.022Z,8.75
2023-05-02T00:51:27.602Z,8.97
2023-05-02T00:54:14.084Z,9.06
2023-05-02T00:56:51.246Z,9.23
2023-05-02T00:59:30.076Z,9.09
2023-05-02T01:02:28.310Z,9.14
2023-05-02T01:05:25.173Z,8.93
2023-05-02T01:08:18.153Z,9.12
2023-05-02T01:11:07.145Z,9.05
2023-05-02T01:13:47.419Z,9.22
2023-05-02T01:16:31.795Z,9.34
2023-05-02T01:19:11.489Z,9.27
2023-05-02T01:21:48.630Z,9.29
2023-05-02T01:24:35.562Z,9.26
2023-05-02T01:27:35.452Z,9.28
2023-05-02T01:30:10.086Z,9.18
2023-05-02T01:32:52.946Z,9.19
2023-05-02T01:35:39.782Z,9.09
2023-05-02T01:38:20.545Z,9.12
2023-05-02T01:40:57.365Z,9.09
2023-05-02T01:43:41.476Z,8.98
2023-05-02T01:46:16.511Z,9.03
2023-05-02T01:48:58.392Z,9.13
2023-05-02T01:51:40.271Z,9.28
2023-05-02T01:54:14.322Z,9.42
2023-05-02T01:56:53.467Z,9.38
2023-05-02T01:59:33.538Z,9.47
2023-05-02T02:02:18.932Z,9.47
2023-05-02T02:04:54.917Z,9.40
2023-05-02T02:07:35.334Z,9.40
2023-05-02T02:10:03.394Z,9.28
2023-05-02T02:12:45.406Z,9.28
2023-05-02T02:15:40.949Z,9.24
2023-05-02T02:18:25.309Z,9.19
2023-05-02T02:21:01.458Z,9.05
2023-05-02T02:23:39.836Z,8.96
2023-05-02T02:26:25.381Z,8.91
2023-05-02T02:29:00.679Z,8.81
2023-05-02T02:31:48.062Z,8.83
2023-05-02T02:34:23.917Z,8.81
2023-05-02T02:37:20.793Z,8.70
2023-05-02T02:40:03.649Z,8.60
2023-05-02T02:43:01.288Z,8.48
2023-05-02T02:46:09.532Z,8.46
2023-05-02T02:48:54.656Z,8.27
2023-05-02T02:51:38.886Z,8.13
2023-05-02T02:54:27.329Z,7.90
2023-05-02T02:57:48.339Z,7.98
2023-05-02T03:00:32.460Z,7.95
2023-05-02T03:03:10.921Z,7.83
2023-05-02T03:05:42.878Z,7.82
2023-05-02T03:08:18.792Z,7.78
2023-05-02T03:10:59.079Z,7.74
2023-05-02T03:13:31.211Z,7.72
2023-05-02T03:16:12.463Z,7.68
2023-05-02T03:18:42.726Z,7.67
2023-05-02T03:21:26.215Z,7.50
2023-05-02T03:24:08.327Z,7.55
2023-05-02T03:27:00.681Z,7.57
2023-05-02T03:29:43.449Z,7.54
2023-05-02T03:32:21.244Z,7.46
2023-05-02T03:35:11.319Z,7.43
2023-05-02T03:37:54.891Z,7.45
2023-05-02T03:40:22.207Z,7.43
2023-05-02T03:42:55.471Z,7.44
2023-05-02T03:45:34.946Z,7.44
2023-05-02T03:48:09.909Z,7.39
2023-05-02T03:50:38.135Z,7.37
2023-05-02T03:53:12.788Z,7.33
2023-05-02T03:55:57.338Z,7.42
2023-05-02T03:58:50.339Z,7.42
2023-05-02T04:01:32.464Z,7.51
2023-05-02T04:04:14.692Z,7.60
2023-05-02T04:06:58.351Z,7.75
2023-05-02T04:09:40.584Z,7.84
2023-05-02T04:12:22.405Z,7.90
2023-05-02T04:15:00.463Z,7.87
2023-05-02T04:17:41.308Z,7.95
2023-05-02T04:20:20.345Z,8.02
2023-05-02T04:22:56.088Z,8.11
2023-05-02T04:25:31.739Z,8.24
2023-05-02T04:28:11.413Z,8.37
2023-05-02T04:30:44.202Z,8.38
2023-05-02T04:33:17.302Z,8.48
2023-05-02T04:35:53.850Z,8.48
2023-05-02T04:38:35.742Z,8.49
2023-05-02T04:41:15.959Z,8.68
2023-05-02T04:43:59.709Z,8.80
2023-05-02T04:46:38.391Z,8.90
2023-05-02T04:49:10.754Z,8.96
2023-05-02T04:51:48.012Z,9.06
2023-05-02T04:54:26.267Z,9.29
2023-05-02T04:57:07.726Z,9.70
2023-05-02T04:59:43.499Z,9.98
2023-05-02T05:02:28.402Z,10.14
2023-05-02T05:05:06.061Z,10.24
2023-05-02T05:07:49.339Z,10.24
2023-05-02T05:10:24.304Z,10.25
2023-05-02T05:13:05.159Z,10.32
2023-05-02T05:15:47.210Z,10.37
2023-05-02T05:18:29.992Z,10.47
2023-05-02T05:21:10.826Z,10.62
2023-05-02T05:23:48.889Z,10.73
2023-05-02T05:26:46.735Z,10.88
2023-05-02T05:29:22.370Z,10.99
2023-05-02T05:32:00.456Z,11.10
2023-05-02T05:34:40.377Z,11.39
2023-05-02T05:37:07.457Z,11.58
2023-05-02T05:39:51.769Z,11.80
2023-05-02T05:42:29.550Z,12.08
2023-05-02T05:45:08.353Z,12.22
2023-05-02T05:47:46.157Z,12.30
2023-05-02T05:50:28.990Z,12.54
2023-05-02T05:53:12.613Z,12.72
2023-05-02T05:55:58.379Z,12.88
2023-05-02T05:58:35.364Z,12.97
2023-05-02T06:01:14.417Z,13.04
2023-05-02T06:03:59.424Z,13.04
2023-05-02T06:06:32.917Z,13.09
2023-05-02T06:09:19.813Z,13.25
2023-05-02T06:11:56.585Z,13.37
2023-05-02T06:14:26.970Z,13.44
2023-05-02T06:17:04.211Z,13.54
2023-05-02T06:19:42.424Z,13.70
2023-05-02T06:22:23.208Z,13.86
2023-05-02T06:25:08.920Z,14.01
2023-05-02T06:27:50.680Z,14.19
2023-05-02T06:30:38.699Z,14.31
2023-05-02T06:33:19.791Z,14.49
2023-05-02T06:35:55.293Z,14.57
2023-05-02T06:38:37.621Z,14.69
2023-05-02T06:41:17.818Z,14.77
2023-05-02T06:44:01.341Z,15.15
2023-05-02T06:46:35.477Z,15.56
2023-05-02T06:49:16.234Z,16.06
2023-05-02T06:51:52.203Z,16.45
2023-05-02T06:54:28.318Z,16.79
2023-05-02T06:57:06.676Z,16.89
2023-05-02T06:59:52.053Z,16.99
2023-05-02T07:02:35.627Z,16.87
2023-05-02T07:05:15.631Z,16.92
2023-05-02T07:07:58.983Z,16.94
2023-05-02T07:10:38.322Z,17.02
2023-05-02T07:13:16.010Z,17.21
2023-05-02T07:15:57.328Z,17.28
2023-05-02T07:18:43.342Z,17.75
2023-05-02T07:21:25.726Z,18.72
2023-05-02T07:23:57.682Z,19.30
2023-05-02T07:26:44.026Z,19.85
2023-05-02T07:29:24.911Z,19.89
2023-05-02T07:32:10.546Z,20.38
2023-05-02T07:34:56.262Z,20.60
2023-05-02T07:37:49.693Z,20.87
2023-05-02T07:40:41.128Z,20.66
2023-05-02T07:43:22.878Z,20.98
2023-05-02T07:46:07.181Z,21.10
2023-05-02T07:48:51.480Z,21.01
2023-05-02T07:51:29.678Z,20.42
2023-05-02T07:54:24.948Z,20.79
2023-05-02T07:57:08.872Z,21.31
2023-05-02T07:59:45.542Z,21.27
2023-05-02T08:02:43.664Z,21.38
2023-05-02T08:05:27.407Z,21.26
2023-05-02T08:08:05.086Z,21.02
2023-05-02T08:10:44.748Z,20.73
2023-05-02T08:13:27.322Z,20.41
2023-05-02T08:16:14.361Z,19.69
2023-05-02T08:18:47.118Z,19.89
2023-05-02T08:21:32.690Z,20.16
2023-05-02T08:24:13.479Z,20.71
2023-05-02T08:26:54.267Z,21.23
2023-05-02T08:29:32.477Z,20.93
2023-05-02T08:32:19.238Z,21.41
2023-05-02T08:35:03.191Z,21.85
2023-05-02T08:37:48.548Z,22.38
2023-05-02T08:40:40.988Z,22.72
2023-05-02T08:43:25.891Z,23.08
2023-05-02T08:46:09.337Z,22.90
2023-05-02T08:48:48.759Z,22.78
2023-05-02T08:51:31.494Z,22.51
2023-05-02T08:54:16.741Z,22.56
2023-05-02T08:56:55.462Z,21.98
2023-05-02T08:59:36.749Z,21.94
2023-05-02T09:02:42.346Z,21.73
2023-05-02T09:05:28.165Z,22.15
2023-05-02T09:08:04.345Z,22.46
2023-05-02T09:10:46.489Z,22.48
2023-05-02T09:13:43.584Z,22.56
2023-05-02T09:16:24.551Z,22.98
2023-05-02T09:19:04.420Z,22.49
2023-05-02T09:21:50.354Z,22.76
2023-05-02T09:24:40.105Z,22.99
2023-05-02T09:27:20.435Z,22.64
2023-05-02T09:30:48.384Z,22.78
2023-05-02T09:33:35.303Z,22.76
2023-05-02T09:36:25.182Z,23.22
2023-05-02T09:39:15.479Z,23.24
2023-05-02T09:41:56.665Z,23.35
2023-05-02T09:44:50.538Z,23.16
2023-05-02T09:47:35.317Z,22.78
2023-05-02T09:50:14.564Z,22.47
2023-05-02T09:53:09.526Z,22.73
2023-05-02T09:56:06.410Z,22.52
2023-05-02T09:58:53.017Z,21.68
2023-05-02T10:01:33.012Z,22.00
2023-05-02T10:04:20.352Z,22.09
2023-05-02T10:06:58.622Z,22.43
2023-05-02T10:09:38.515Z,22.70
2023-05-02T10:12:17.265Z,23.07
2023-05-02T10:15:09.182Z,23.51
2023-05-02T10:17:59.324Z,22.73
2023-05-02T10:20:55.885Z,23.06
2023-05-02T10:23:40.829Z,23.17
2023-05-02T10:26:22.006Z,23.32
2023-05-02T10:29:05.204Z,23.06
2023-05-02T10:31:48.507Z,22.87
2023-05-02T10:34:29.678Z,23.27
2023-05-02T10:37:20.039Z,24.07
2023-05-02T10:40:01.824Z,24.36
2023-05-02T10:42:51.250Z,23.73
2023-05-02T10:45:43.257Z,23.47
2023-05-02T10:48:19.880Z,23.90
2023-05-02T10:51:03.068Z,23.06
2023-05-02T10:53:45.241Z,22.95
2023-05-02T10:56:42.761Z,23.72
2023-05-02T10:59:41.502Z,24.60
2023-05-02T11:02:35.217Z,24.75
2023-05-02T11:05:20.444Z,24.78
2023-05-02T11:08:41.933Z,24.97
2023-05-02T11:11:42.001Z,25.44
2023-05-02T11:14:43.701Z,25.72
2023-05-02T11:17:48.492Z,25.87
2023-05-02T11:20:35.359Z,25.86
2023-05-02T11:23:28.650Z,25.78
2023-05-02T11:26:29.265Z,25.16
2023-05-02T11:29:11.484Z,25.85
2023-05-02T11:31:56.076Z,26.45
2023-05-02T11:34:33.969Z,26.33
2023-05-02T11:37:18.420Z,26.45
2023-05-02T11:40:16.919Z,26.10
2023-05-02T11:42:54.266Z,25.91
2023-05-02T11:45:39.417Z,26.39
2023-05-02T11:48:27.212Z,26.66
2023-05-02T11:51:07.842Z,26.15
2023-05-02T11:53:53.674Z,25.88
2023-05-02T11:56:36.128Z,25.85
2023-05-02T11:59:19.436Z,25.49
2023-05-02T12:02:09.771Z,24.72
2023-05-02T12:04:51.450Z,24.19
2023-05-02T12:07:56.710Z,24.24
2023-05-02T12:10:44.103Z,24.12
2023-05-02T12:13:22.344Z,24.23
2023-05-02T12:15:57.313Z,23.87
2023-05-02T12:18:38.390Z,24.02
2023-05-02T12:21:20.372Z,23.64
2023-05-02T12:24:06.663Z,24.11
2023-05-02T12:26:44.324Z,23.79
2023-05-02T12:29:25.669Z,23.66
2023-05-02T12:32:00.057Z,23.55
2023-05-02T12:34:42.009Z,23.13
2023-05-02T12:37:36.323Z,23.14
2023-05-02T12:40:22.029Z,23.29
2023-05-02T12:43:10.701Z,23.37
2023-05-02T12:45:48.366Z,23.47
2023-05-02T12:48:32.856Z,23.55
2023-05-02T12:51:25.730Z,23.61
2023-05-02T12:54:08.796Z,23.80
2023-05-02T12:56:45.113Z,23.64
2023-05-02T12:59:34.709Z,23.52
2023-05-02T13:02:17.648Z,23.50
2023-05-02T13:04:55.945Z,23.02
2023-05-02T13:07:48.102Z,23.33
2023-05-02T13:10:25.073Z,23.39
2023-05-02T13:13:03.663Z,23.29
2023-05-02T13:15:39.316Z,23.29
2023-05-02T13:18:17.530Z,23.18
2023-05-02T13:21:05.002Z,22.95
2023-05-02T13:23:44.361Z,22.71
2023-05-02T13:26:25.011Z,23.01
2023-05-02T13:29:07.254Z,22.87
2023-05-02T13:31:56.985Z,22.78
2023-05-02T13:34:42.659Z,22.75
2023-05-02T13:37:26.152Z,22.59
2023-05-02T13:40:01.953Z,22.54
2023-05-02T13:42:39.646Z,22.71
2023-05-02T13:45:17.450Z,22.50
2023-05-02T13:47:55.927Z,22.81
2023-05-02T13:50:39.264Z,22.80
2023-05-02T13:53:27.458Z,22.90
2023-05-02T13:56:11.329Z,22.89
2023-05-02T13:58:59.806Z,22.87
2023-05-02T14:01:45.365Z,22.72
2023-05-02T14:04:23.988Z,22.62
2023-05-02T14:07:07.325Z,22.57
2023-05-02T14:09:47.972Z,22.74
2023-05-02T14:12:36.686Z,22.60
2023-05-02T14:15:15.051Z,22.52
2023-05-02T14:17:52.996Z,22.54
2023-05-02T14:20:41.559Z,22.70
2023-05-02T14:23:17.813Z,22.83
2023-05-02T14:26:07.328Z,22.73
2023-05-02T14:28:49.958Z,22.84
2023-05-02T14:31:30.816Z,22.62
2023-05-02T14:34:09.105Z,22.57
2023-05-02T14:36:50.900Z,22.68
2023-05-02T14:39:28.392Z,22.81
2023-05-02T14:42:15.120Z,22.99
2023-05-02T14:44:58.795Z,23.00
2023-05-02T14:47:35.085Z,22.89
2023-05-02T14:50:16.873Z,22.93
2023-05-02T14:52:51.745Z,23.10
2023-05-02T14:55:24.283Z,22.89
2023-05-02T14:58:23.388Z,23.00
2023-05-02T15:01:04.275Z,22.97
2023-05-02T15:04:05.044Z,23.01
2023-05-02T15:06:46.488Z,22.93
2023-05-02T15:09:16.473Z,22.78
2023-05-02T15:12:03.481Z,22.76
2023-05-02T15:14:59.727Z,22.76
2023-05-02T15:17:43.787Z,22.76
2023-05-02T15:20:24.636Z,22.64
2023-05-02T15:23:03.778Z,22.66
2023-05-02T15:25:45.376Z,22.60
2023-05-02T15:28:29.482Z,22.51
2023-05-02T15:31:12.286Z,22.49
2023-05-02T15:33:54.216Z,22.37
2023-05-02T15:36:38.166Z,22.41
2023-05-02T15:39:43.233Z,22.33
2023-05-02T15:42:36.786Z,22.37
2023-05-02T15:45:18.358Z,22.45
2023-05-02T15:48:05.678Z,22.27
2023-05-02T15:50:47.304Z,22.38
2023-05-02T15:53:28.366Z,22.25
2023-05-02T15:56:07.169Z,22.23
2023-05-02T15:58:49.163Z,22.27
2023-05-02T16:01:31.876Z,22.32
2023-05-02T16:04:10.412Z,22.16
2023-05-02T16:06:55.788Z,22.25
2023-05-02T16:09:37.320Z,22.22
2023-05-02T16:12:19.478Z,22.22
2023-05-02T16:15:03.927Z,22.17
2023-05-02T16:17:49.789Z,22.15
2023-05-02T16:20:39.790Z,22.06
2023-05-02T16:23:23.345Z,21.97
2023-05-02T16:26:13.929Z,22.02
2023-05-02T16:28:56.552Z,21.85
2023-05-02T16:31:45.451Z,21.85
2023-05-02T16:34:28.784Z,21.72
2023-05-02T16:37:18.002Z,21.80
2023-05-02T16:40:01.375Z,21.68
2023-05-02T16:42:45.559Z,21.65
2023-05-02T16:45:23.842Z,21.60
2023-05-02T16:48:11.422Z,21.54
2023-05-02T16:51:01.710Z,21.44
2023-05-02T16:53:48.958Z,21.25
2023-05-02T16:56:41.930Z,21.16
2023-05-02T16:59:29.325Z,21.11
2023-05-02T17:02:10.758Z,21.06
2023-05-02T17:04:50.251Z,20.88
2023-05-02T17:07:25.987Z,20.79
2023-05-02T17:10:07.838Z,20.64
2023-05-02T17:12:46.897Z,20.65
2023-05-02T17:15:20.213Z,20.44
2023-05-02T17:18:06.706Z,20.17
2023-05-02T17:20:48.328Z,20.14
2023-05-02T17:23:36.350Z,20.14
2023-05-02T17:26:26.266Z,20.02
2023-05-02T17:29:12.111Z,19.85
2023-05-02T17:32:01.828Z,19.61
2023-05-02T17:34:50.548Z,19.37
2023-05-02T17:37:43.419Z,19.27
2023-05-02T17:40:30.204Z,19.12
2023-05-02T17:43:16.886Z,19.04
2023-05-02T17:46:01.760Z,18.80
2023-05-02T17:48:53.308Z,18.76
2023-05-02T17:51:36.568Z,18.66
2023-05-02T17:54:15.163Z,18.64
2023-05-02T17:57:00.074Z,18.55
2023-05-02T17:59:39.385Z,18.52
2023-05-02T18:02:25.628Z,18.52
2023-05-02T18:05:17.538Z,18.49
2023-05-02T18:07:53.609Z,18.46
2023-05-02T18:10:58.232Z,18.43
2023-05-02T18:13:41.863Z,18.45
2023-05-02T18:16:19.792Z,18.41
2023-05-02T18:19:15.074Z,18.40
2023-05-02T18:21:53.876Z,18.79
2023-05-02T18:24:29.389Z,18.87
2023-05-02T18:27:24.410Z,18.89
2023-05-02T18:30:14.230Z,18.96
2023-05-02T18:33:02.717Z,18.94
2023-05-02T18:35:41.229Z,18.89
2023-05-02T18:38:18.383Z,18.75
2023-05-02T18:41:01.516Z,18.73
2023-05-02T18:43:49.352Z,18.71
2023-05-02T18:46:33.812Z,18.61
2023-05-02T18:49:09.341Z,18.51
2023-05-02T18:51:52.898Z,18.38
2023-05-02T18:54:29.419Z,18.43
2023-05-02T18:57:18.362Z,18.38
2023-05-02T19:00:05.175Z,18.39
2023-05-02T19:02:40.659Z,18.26
2023-05-02T19:05:27.086Z,18.29
2023-05-02T19:08:12.809Z,18.25
2023-05-02T19:10:59.188Z,18.12
2023-05-02T19:13:42.317Z,18.15
2023-05-02T19:16:29.075Z,18.04
2023-05-02T19:19:18.722Z,18.07
2023-05-02T19:22:05.006Z,17.85
2023-05-02T19:24:54.981Z,17.79
2023-05-02T19:27:42.833Z,17.80
2023-05-02T19:30:27.287Z,17.68
2023-05-02T19:33:10.876Z,17.52
2023-05-02T19:36:00.246Z,17.41
2023-05-02T19:38:35.990Z,17.47
2023-05-02T19:41:18.599Z,17.44
2023-05-02T19:43:56.675Z,17.24
2023-05-02T19:46:32.475Z,17.27
2023-05-02T19:49:26.364Z,17.26
2023-05-02T19:52:07.582Z,17.10
2023-05-02T19:55:02.133Z,17.19
2023-05-02T19:57:40.222Z,17.05
2023-05-02T20:00:22.357Z,17.21
2023-05-02T20:03:08.586Z,17.14
2023-05-02T20:05:57.640Z,17.06
2023-05-02T20:08:46.204Z,17.13
2023-05-02T20:11:38.291Z,17.12
2023-05-02T20:14:23.985Z,17.07
2023-05-02T20:17:05.820Z,17.08
2023-05-02T20:19:58.017Z,16.85
2023-05-02T20:22:46.905Z,16.88
2023-05-02T20:25:33.238Z,16.89
2023-05-02T20:28:24.227Z,16.85
2023-05-02T20:31:15.164Z,16.77
2023-05-02T20:34:00.425Z,16.62
2023-05-02T20:36:53.471Z,16.65
2023-05-02T20:39:32.544Z,16.74
2023-05-02T20:42:23.520Z,16.65
2023-05-02T20:45:24.540Z,16.55
2023-05-02T20:48:14.718Z,16.53
2023-05-02T20:51:15.290Z,16.52
2023-05-02T20:54:08.234Z,16.44
2023-05-02T20:56:47.284Z,16.14
2023-05-02T20:59:33.433Z,16.07
2023-05-02T21:02:14.329Z,16.08
2023-05-02T21:05:04.038Z,16.20
2023-05-02T21:07:54.705Z,16.33
2023-05-02T21:10:42.444Z,16.45
2023-05-02T21:13:20.068Z,16.42
2023-05-02T21:16:03.779Z,16.37
2023-05-02T21:18:53.309Z,16.31
2023-05-02T21:21:57.255Z,16.21
2023-05-02T21:24:55.712Z,16.33
2023-05-02T21:27:39.246Z,16.26
2023-05-02T21:30:43.823Z,16.24
2023-05-02T21:33:33.155Z,16.33
2023-05-02T21:36:13.153Z,16.23
2023-05-02T21:39:02.509Z,16.18
2023-05-02T21:41:42.769Z,16.15
2023-05-02T21:44:34.323Z,16.08
2023-05-02T21:47:26.767Z,16.12
2023-05-02T21:50:11.623Z,16.05
2023-05-02T21:53:10.631Z,15.89
2023-05-02T21:55:49.480Z,15.66
2023-05-02T21:58:36.671Z,15.66
2023-05-02T22:01:20.127Z,15.77
2023-05-02T22:04:08.445Z,15.70
2023-05-02T22:06:44.328Z,15.71
2023-05-02T22:09:24.741Z,15.73
2023-05-02T22:12:22.411Z,15.53
2023-05-02T22:15:12.197Z,15.39
2023-05-02T22:17:57.676Z,15.43
2023-05-02T22:20:38.167Z,15.36
2023-05-02T22:23:20.063Z,15.40
2023-05-02T22:26:05.617Z,15.40
2023-05-02T22:28:58.346Z,15.30
2023-05-02T22:31:41.791Z,15.29
2023-05-02T22:34:26.223Z,15.16
2023-05-02T22:37:07.218Z,15.27
2023-05-02T22:40:01.622Z,15.22
2023-05-02T22:42:44.047Z,15.20
2023-05-02T22:45:30.608Z,15.26
2023-05-02T22:48:12.400Z,15.26
2023-05-02T22:50:56.749Z,15.17
2023-05-02T22:53:35.435Z,15.18
2023-05-02T22:56:16.876Z,15.07
2023-05-02T22:59:01.317Z,14.98
2023-05-02T23:01:50.830Z,15.03
2023-05-02T23:04:45.630Z,14.87
2023-05-02T23:07:23.300Z,14.91
2023-05-02T23:10:01.393Z,14.90
2023-05-02T23:12:44.947Z,14.85
2023-05-02T23:15:31.733Z,14.85
2023-05-02T23:18:18.037Z,14.83
2023-05-02T23:21:02.309Z,14.89
2023-05-02T23:23:42.890Z,14.66
2023-05-02T23:26:31.276Z,14.65
2023-05-02T23:29:15.371Z,14.44
2023-05-02T23:31:55.907Z,14.49
2023-05-02T23:34:43.548Z,14.44
2023-05-02T23:37:32.729Z,14.56
2023-05-02T23:40:18.850Z,14.63
2023-05-02T23:43:00.330Z,14.74
2023-05-02T23:45:47.225Z,14.68
2023-05-02T23:48:44.125Z,14.73
2023-05-02T23:51:24.476Z,14.79
2023-05-02T23:54:08.697Z,14.58
2023-05-02T23:57:00.481Z,14.54
2023-05-02T23:59:54.884Z,14.24
